Time,TemperatureF,DewpointF,PressureIn,WindDirection,WindDirectionDegrees,WindSpeedMPH,WindSpeedGustMPH,Humidity,HourlyPrecipIn,Conditions,Clouds,dailyrainin,SoftwareType,DateUTC
2013-06-14 00:02:00,67.1,57.8,28.61,NE,45,0.0,0.0,72,0.00,,,0.00,open2300-1.11,2013-06-13 21:02:00,
2013-06-14 00:12:00,67.3,58.0,28.61,NE,45,0.0,0.0,72,0.00,,,0.00,open2300-1.11,2013-06-13 21:12:00,
2013-06-14 00:17:00,67.3,58.0,28.62,NE,45,0.0,0.0,72,0.00,,,0.00,open2300-1.11,2013-06-13 21:17:00,
2013-06-14 00:27:00,67.3,58.0,28.62,NE,45,0.0,0.0,72,0.00,,,0.00,open2300-1.11,2013-06-13 21:27:00,
2013-06-14 00:32:00,67.3,58.0,28.62,NE,45,0.0,0.0,72,0.00,,,0.00,open2300-1.11,2013-06-13 21:32:00,
2013-06-14 00:37:00,67.3,58.0,28.62,NNE,22,0.0,0.0,72,0.00,,,0.00,open2300-1.11,2013-06-13 21:37:00,
2013-06-14 00:42:00,67.3,58.0,28.62,NE,45,0.0,0.0,72,0.00,,,0.00,open2300-1.11,2013-06-13 21:42:00,
2013-06-14 00:52:00,67.3,57.6,28.62,NE,45,0.0,0.0,71,0.00,,,0.00,open2300-1.11,2013-06-13 21:52:00,
2013-06-14 00:57:00,67.1,57.4,28.62,NE,45,0.0,0.0,71,0.00,,,0.00,open2300-1.11,2013-06-13 21:57:00,
2013-06-14 01:02:00,67.1,57.4,28.62,NE,45,0.0,0.0,71,0.00,,,0.00,open2300-1.11,2013-06-13 22:02:00,
2013-06-14 01:12:00,66.9,57.2,28.62,NNE,22,0.0,0.0,71,0.00,,,0.00,open2300-1.11,2013-06-13 22:12:00,
2013-06-14 01:17:00,66.9,57.2,28.62,NNE,22,0.0,0.0,71,0.00,,,0.00,open2300-1.11,2013-06-13 22:17:00,
2013-06-14 01:22:00,66.9,57.2,28.62,NNE,22,0.0,0.0,71,0.00,,,0.00,open2300-1.11,2013-06-13 22:22:00,
2013-06-14 01:32:00,66.7,57.4,28.62,NNE,22,0.0,0.0,72,0.00,,,0.00,open2300-1.11,2013-06-13 22:32:00,
2013-06-14 01:37:00,66.7,57.4,28.62,NNE,22,0.0,0.0,72,0.00,,,0.00,open2300-1.11,2013-06-13 22:37:00,
2013-06-14 01:42:00,66.7,57.4,28.62,NNE,22,0.0,0.0,72,0.00,,,0.00,open2300-1.11,2013-06-13 22:42:00,
2013-06-14 01:52:00,66.4,57.1,28.62,NNE,22,0.0,0.0,72,0.00,,,0.00,open2300-1.11,2013-06-13 22:52:00,
2013-06-14 01:59:00,66.4,57.1,28.62,NNE,22,0.0,0.0,72,0.00,,,0.00,open2300-1.11,2013-06-13 22:59:00,
2013-06-14 02:07:00,66.4,57.1,28.61,NNE,22,0.0,0.0,72,0.00,,,0.00,open2300-1.11,2013-06-13 23:07:00,
2013-06-14 02:12:00,66.4,57.1,28.62,NNE,22,0.0,0.0,72,0.00,,,0.00,open2300-1.11,2013-06-13 23:12:00,
2013-06-14 02:22:00,66.2,56.9,28.62,NNE,22,0.0,0.0,72,0.00,,,0.00,open2300-1.11,2013-06-13 23:22:00,
2013-06-14 02:32:00,66.0,57.1,28.61,NNE,22,0.0,0.0,73,0.00,,,0.00,open2300-1.11,2013-06-13 23:32:00,
2013-06-14 02:37:00,66.0,57.1,28.62,NNE,22,0.0,0.0,73,0.00,,,0.00,open2300-1.11,2013-06-13 23:37:00,
2013-06-14 02:47:00,65.8,56.9,28.62,NNE,22,0.0,0.0,73,0.00,,,0.00,open2300-1.11,2013-06-13 23:47:00,
2013-06-14 02:52:00,65.8,56.9,28.61,NNE,22,0.0,0.0,73,0.00,,,0.00,open2300-1.11,2013-06-13 23:52:00,
2013-06-14 03:02:00,65.8,56.9,28.61,NNE,22,0.0,0.0,73,0.00,,,0.00,open2300-1.11,2013-06-14 00:02:00,
2013-06-14 03:07:00,65.8,56.9,28.61,NNE,22,0.0,0.0,73,0.00,,,0.00,open2300-1.11,2013-06-14 00:07:00,
2013-06-14 03:17:00,65.8,56.9,28.62,NNE,22,0.0,0.0,73,0.00,,,0.00,open2300-1.11,2013-06-14 00:17:00,
2013-06-14 03:22:00,65.8,56.9,28.61,NNE,22,0.0,0.0,73,0.00,,,0.00,open2300-1.11,2013-06-14 00:22:00,
2013-06-14 03:32:00,65.7,57.1,28.61,NNE,22,0.0,0.0,74,0.00,,,0.00,open2300-1.11,2013-06-14 00:32:00,
2013-06-14 03:42:00,65.7,57.1,28.61,NNE,22,0.0,0.0,74,0.00,,,0.00,open2300-1.11,2013-06-14 00:42:00,
2013-06-14 03:47:00,65.7,57.1,28.61,NNE,22,0.0,0.0,74,0.00,,,0.00,open2300-1.11,2013-06-14 00:47:00,
2013-06-14 03:52:00,65.7,57.1,28.61,NNE,22,0.0,0.0,74,0.00,,,0.00,open2300-1.11,2013-06-14 00:52:00,
2013-06-14 03:57:00,65.5,57.0,28.61,NNE,22,0.0,0.0,74,0.00,,,0.00,open2300-1.11,2013-06-14 00:57:00,
2013-06-14 04:07:00,65.5,57.0,28.61,NNE,22,0.0,0.0,74,0.00,,,0.00,open2300-1.11,2013-06-14 01:07:00,
2013-06-14 04:12:00,65.5,57.0,28.61,NNE,22,0.0,0.0,74,0.00,,,0.00,open2300-1.11,2013-06-14 01:12:00,
2013-06-14 04:22:00,65.5,57.0,28.61,NNE,22,0.0,0.0,74,0.00,,,0.00,open2300-1.11,2013-06-14 01:22:00,
2013-06-14 04:27:00,65.5,57.0,28.61,NNE,22,0.0,0.0,74,0.00,,,0.00,open2300-1.11,2013-06-14 01:27:00,
2013-06-14 04:37:00,65.5,57.0,28.60,NNE,22,0.0,0.0,74,0.00,,,0.00,open2300-1.11,2013-06-14 01:37:00,
2013-06-14 04:47:00,65.5,57.0,28.61,NNE,22,0.0,0.0,74,0.00,,,0.00,open2300-1.11,2013-06-14 01:47:00,
2013-06-14 04:52:00,65.5,57.0,28.61,NNE,22,0.0,0.0,74,0.00,,,0.00,open2300-1.11,2013-06-14 01:52:00,
2013-06-14 05:02:00,65.5,57.0,28.61,NNE,22,0.0,0.0,74,0.00,,,0.00,open2300-1.11,2013-06-14 02:02:00,
2013-06-14 05:07:00,65.7,57.1,28.61,NNE,22,0.0,0.0,74,0.00,,,0.00,open2300-1.11,2013-06-14 02:07:00,
2013-06-14 05:17:00,65.7,57.1,28.61,NNE,22,0.0,0.0,74,0.00,,,0.00,open2300-1.11,2013-06-14 02:17:00,
2013-06-14 05:22:00,65.7,57.1,28.62,NNE,22,0.0,0.0,74,0.00,,,0.00,open2300-1.11,2013-06-14 02:22:00,
2013-06-14 05:32:00,65.5,56.6,28.62,NNE,22,0.0,0.0,73,0.00,,,0.00,open2300-1.11,2013-06-14 02:32:00,
2013-06-14 05:37:00,65.5,56.6,28.61,NNE,22,0.0,0.0,73,0.00,,,0.00,open2300-1.11,2013-06-14 02:37:00,
2013-06-14 05:47:00,65.3,56.4,28.62,NNE,22,0.0,0.0,73,0.00,,,0.00,open2300-1.11,2013-06-14 02:47:00,
2013-06-14 05:52:00,65.3,56.4,28.62,NNE,22,0.0,0.0,73,0.00,,,0.00,open2300-1.11,2013-06-14 02:52:00,
2013-06-14 06:02:00,65.3,56.4,28.62,NNE,22,0.0,0.0,73,0.00,,,0.00,open2300-1.11,2013-06-14 03:02:00,
2013-06-14 06:09:00,65.5,56.6,28.62,NNE,22,0.0,0.0,73,0.00,,,0.00,open2300-1.11,2013-06-14 03:09:00,
2013-06-14 06:17:00,65.3,56.4,28.62,NNE,22,0.0,0.0,73,0.00,,,0.00,open2300-1.11,2013-06-14 03:17:00,
2013-06-14 06:22:00,65.3,56.4,28.62,NNE,22,0.0,0.0,73,0.00,,,0.00,open2300-1.11,2013-06-14 03:22:00,
2013-06-14 06:27:00,65.3,56.4,28.62,NNE,22,0.0,0.0,73,0.00,,,0.00,open2300-1.11,2013-06-14 03:27:00,
2013-06-14 06:37:00,65.3,56.4,28.62,NNE,22,0.0,0.0,73,0.00,,,0.00,open2300-1.11,2013-06-14 03:37:00,
2013-06-14 06:47:00,65.5,56.6,28.62,NE,45,0.0,0.0,73,0.00,,,0.00,open2300-1.11,2013-06-14 03:47:00,
2013-06-14 06:52:00,65.5,56.6,28.62,NE,45,0.0,0.0,73,0.00,,,0.00,open2300-1.11,2013-06-14 03:52:00,
2013-06-14 06:57:00,65.7,56.8,28.62,NE,45,0.0,0.0,73,0.00,,,0.00,open2300-1.11,2013-06-14 03:57:00,
2013-06-14 07:02:00,65.7,56.8,28.62,NE,45,0.0,0.0,73,0.00,,,0.00,open2300-1.11,2013-06-14 04:02:00,
2013-06-14 07:07:00,65.8,56.9,28.62,NE,45,0.0,0.0,73,0.00,,,0.00,open2300-1.11,2013-06-14 04:07:00,
2013-06-14 07:12:00,65.8,56.9,28.62,NE,45,0.0,0.0,73,0.00,,,0.00,open2300-1.11,2013-06-14 04:12:00,
2013-06-14 07:17:00,65.8,56.9,28.62,NE,45,0.0,0.0,73,0.00,,,0.00,open2300-1.11,2013-06-14 04:17:00,
2013-06-14 07:22:00,66.0,56.7,28.62,NE,45,0.0,0.0,72,0.00,,,0.00,open2300-1.11,2013-06-14 04:22:00,
2013-06-14 07:27:00,66.0,56.7,28.62,NE,45,0.0,0.0,72,0.00,,,0.00,open2300-1.11,2013-06-14 04:27:00,
2013-06-14 07:37:00,66.4,57.1,28.62,NE,45,0.0,0.0,72,0.00,,,0.00,open2300-1.11,2013-06-14 04:37:00,
2013-06-14 07:42:00,66.4,57.1,28.62,NE,45,0.0,0.0,72,0.00,,,0.00,open2300-1.11,2013-06-14 04:42:00,
2013-06-14 07:52:00,66.6,57.2,28.62,NE,45,0.0,0.0,72,0.00,,,0.00,open2300-1.11,2013-06-14 04:52:00,
2013-06-14 07:57:00,66.6,57.2,28.63,NE,45,0.0,0.0,72,0.00,,,0.00,open2300-1.11,2013-06-14 04:57:00,
2013-06-14 08:02:00,66.7,57.4,28.63,NE,45,0.0,0.0,72,0.00,,,0.00,open2300-1.11,2013-06-14 05:02:00,
2013-06-14 08:12:00,66.7,57.4,28.62,NNE,22,0.0,0.0,72,0.00,,,0.00,open2300-1.11,2013-06-14 05:12:00,
2013-06-14 08:17:00,66.9,57.2,28.63,NNE,22,0.0,0.0,71,0.00,,,0.00,open2300-1.11,2013-06-14 05:17:00,
2013-06-14 08:22:00,67.1,57.4,28.62,NE,45,0.0,0.0,71,0.00,,,0.00,open2300-1.11,2013-06-14 05:22:00,
2013-06-14 08:27:00,67.1,57.4,28.63,NE,45,0.0,0.0,71,0.00,,,0.00,open2300-1.11,2013-06-14 05:27:00,
2013-06-14 08:37:00,67.6,57.6,28.63,NE,45,0.0,0.0,70,0.00,,,0.00,open2300-1.11,2013-06-14 05:37:00,
2013-06-14 08:42:00,67.8,57.3,28.63,NNE,22,0.0,0.0,69,0.00,,,0.00,open2300-1.11,2013-06-14 05:42:00,
2013-06-14 08:47:00,68.2,57.7,28.63,NNE,22,0.0,0.0,69,0.00,,,0.00,open2300-1.11,2013-06-14 05:47:00,
2013-06-14 08:57:00,68.5,58.0,28.63,NE,45,0.0,0.0,69,0.00,,,0.00,open2300-1.11,2013-06-14 05:57:00,
2013-06-14 09:02:00,68.5,57.5,28.63,NE,45,0.0,0.0,68,0.00,,,0.00,open2300-1.11,2013-06-14 06:02:00,
2013-06-14 09:07:00,68.7,57.7,28.63,NE,45,0.0,0.0,68,0.00,,,0.00,open2300-1.11,2013-06-14 06:07:00,
2013-06-14 09:17:00,68.9,57.9,28.63,NE,45,0.0,0.0,68,0.00,,,0.00,open2300-1.11,2013-06-14 06:17:00,
2013-06-14 09:22:00,69.1,57.6,28.63,SW,225,0.0,0.0,67,0.00,,,0.00,open2300-1.11,2013-06-14 06:22:00,
2013-06-14 09:27:00,69.1,58.0,28.64,SW,225,0.0,0.0,68,0.00,,,0.00,open2300-1.11,2013-06-14 06:27:00,
2013-06-14 09:37:00,69.1,57.6,28.64,SW,225,0.0,0.0,67,0.00,,,0.00,open2300-1.11,2013-06-14 06:37:00,
2013-06-14 09:42:00,69.3,57.8,28.65,SW,225,0.0,0.0,67,0.00,,,0.00,open2300-1.11,2013-06-14 06:42:00,
2013-06-14 09:48:00,69.4,58.0,28.64,SW,225,0.0,0.0,67,0.00,,,0.00,open2300-1.11,2013-06-14 06:48:00,
2013-06-14 09:57:00,69.6,58.1,28.65,SW,225,0.0,0.0,67,0.00,,,0.00,open2300-1.11,2013-06-14 06:57:00,
2013-06-14 10:07:00,70.3,58.4,28.65,NE,45,0.0,0.0,66,0.00,,,0.00,open2300-1.11,2013-06-14 07:07:00,
2013-06-14 10:17:00,70.3,58.4,28.66,NNE,22,0.0,3.4,66,0.00,,,0.00,open2300-1.11,2013-06-14 07:17:00,
2013-06-14 10:27:00,70.0,58.0,28.66,NE,45,3.4,5.4,66,0.00,,,0.00,open2300-1.11,2013-06-14 07:27:00,
2013-06-14 10:32:00,69.6,57.7,28.66,NE,45,1.8,4.2,66,0.00,,,0.00,open2300-1.11,2013-06-14 07:32:00,
2013-06-14 10:42:00,69.6,58.5,28.67,NE,45,0.0,0.0,68,0.00,,,0.00,open2300-1.11,2013-06-14 07:42:00,
2013-06-14 10:47:00,69.3,59.0,28.67,NNE,22,0.0,0.0,70,0.00,,,0.00,open2300-1.11,2013-06-14 07:47:00,
2013-06-14 10:52:00,69.1,59.3,28.67,NE,45,0.0,0.0,71,0.00,,,0.00,open2300-1.11,2013-06-14 07:52:00,
2013-06-14 11:02:00,68.9,59.9,28.67,NE,45,0.0,0.0,73,0.00,,,0.00,open2300-1.11,2013-06-14 08:02:00,
2013-06-14 11:07:00,68.7,59.7,28.67,NNE,22,0.0,2.9,73,0.00,,,0.00,open2300-1.11,2013-06-14 08:07:00,
2013-06-14 11:12:00,68.7,59.7,28.67,NNE,22,0.0,0.0,73,0.00,,,0.00,open2300-1.11,2013-06-14 08:12:00,
2013-06-14 11:22:00,68.9,59.9,28.67,NNE,22,0.0,0.0,73,0.00,,,0.00,open2300-1.11,2013-06-14 08:22:00,
2013-06-14 11:27:00,68.9,59.9,28.67,NE,45,0.0,0.0,73,0.00,,,0.00,open2300-1.11,2013-06-14 08:27:00,
2013-06-14 11:32:00,69.1,60.0,28.67,NE,45,0.0,0.0,73,0.00,,,0.00,open2300-1.11,2013-06-14 08:32:00,
2013-06-14 11:37:00,69.4,60.3,28.67,NE,45,0.0,0.0,73,0.00,,,0.00,open2300-1.11,2013-06-14 08:37:00,
2013-06-14 11:42:00,69.6,60.5,28.67,NNE,22,0.0,0.0,73,0.00,,,0.00,open2300-1.11,2013-06-14 08:42:00,
2013-06-14 11:52:00,70.0,60.1,28.68,NE,45,0.0,3.1,71,0.00,,,0.00,open2300-1.11,2013-06-14 08:52:00,
2013-06-14 12:02:00,70.3,60.5,28.68,NNE,22,0.0,0.0,71,0.00,,,0.00,open2300-1.11,2013-06-14 09:02:00,
2013-06-14 12:07:00,70.5,60.3,28.68,NE,45,0.0,0.0,70,0.00,,,0.00,open2300-1.11,2013-06-14 09:07:00,
2013-06-14 12:17:00,71.2,60.5,28.67,North,0,0.0,0.0,69,0.00,,,0.00,open2300-1.11,2013-06-14 09:17:00,
2013-06-14 12:22:00,71.4,60.7,28.68,NNE,22,0.0,0.0,69,0.00,,,0.00,open2300-1.11,2013-06-14 09:22:00,
2013-06-14 12:27:00,71.4,60.3,28.67,WSW,247,0.0,0.0,68,0.00,,,0.00,open2300-1.11,2013-06-14 09:27:00,
2013-06-14 12:37:00,71.8,60.2,28.67,NE,45,0.0,0.0,67,0.00,,,0.00,open2300-1.11,2013-06-14 09:37:00,
2013-06-14 12:42:00,71.4,59.4,28.68,NE,45,0.0,0.0,66,0.00,,,0.00,open2300-1.11,2013-06-14 09:42:00,
2013-06-14 12:47:00,71.4,59.9,28.68,NE,45,0.0,0.0,67,0.00,,,0.00,open2300-1.11,2013-06-14 09:47:00,
2013-06-14 12:57:00,72.3,60.3,28.68,SW,225,0.0,0.0,66,0.00,,,0.00,open2300-1.11,2013-06-14 09:57:00,
2013-06-14 13:03:00,72.5,60.0,28.67,WSW,247,0.0,0.0,65,0.00,,,0.00,open2300-1.11,2013-06-14 10:03:00,
2013-06-14 13:12:00,73.2,60.7,28.67,SW,225,1.3,1.3,65,0.00,,,0.00,open2300-1.11,2013-06-14 10:12:00,
2013-06-14 13:17:00,73.4,60.9,28.67,SW,225,0.0,1.3,65,0.00,,,0.00,open2300-1.11,2013-06-14 10:17:00,
2013-06-14 13:22:00,73.4,60.4,28.67,NNE,22,2.5,2.5,64,0.00,,,0.00,open2300-1.11,2013-06-14 10:22:00,
2013-06-14 13:27:00,73.6,60.6,28.67,NE,45,0.0,2.5,64,0.00,,,0.00,open2300-1.11,2013-06-14 10:27:00,
2013-06-14 13:37:00,74.1,60.2,28.67,NE,45,0.0,1.3,62,0.00,,,0.00,open2300-1.11,2013-06-14 10:37:00,
2013-06-14 13:47:00,74.7,60.8,28.67,NNE,22,2.2,3.6,62,0.00,,,0.00,open2300-1.11,2013-06-14 10:47:00,
2013-06-14 13:57:00,74.5,60.2,28.67,NE,45,0.0,1.3,61,0.00,,,0.00,open2300-1.11,2013-06-14 10:57:00,
2013-06-14 14:07:00,74.1,60.2,28.67,NE,45,0.0,5.4,62,0.00,,,0.00,open2300-1.11,2013-06-14 11:07:00,
2013-06-14 14:12:00,74.1,60.2,28.68,NE,45,0.0,5.8,62,0.00,,,0.00,open2300-1.11,2013-06-14 11:12:00,
2013-06-14 14:22:00,75.0,60.7,28.67,NE,45,0.2,1.8,61,0.00,,,0.00,open2300-1.11,2013-06-14 11:22:00,
2013-06-14 14:27:00,75.4,60.6,28.67,NE,45,0.9,0.9,60,0.00,,,0.00,open2300-1.11,2013-06-14 11:27:00,
2013-06-14 14:37:00,76.1,60.8,28.67,NNW,337,0.0,0.0,59,0.00,,,0.00,open2300-1.11,2013-06-14 11:37:00,
2013-06-14 14:44:00,76.5,61.1,28.67,NE,45,0.0,1.8,59,0.00,,,0.00,open2300-1.11,2013-06-14 11:44:00,
2013-06-14 14:52:00,76.6,60.2,28.67,NE,45,2.5,2.5,57,0.00,,,0.00,open2300-1.11,2013-06-14 11:52:00,
2013-06-14 14:57:00,76.8,60.4,28.67,NE,45,1.8,3.8,57,0.00,,,0.00,open2300-1.11,2013-06-14 11:57:00,
2013-06-14 15:02:00,77.0,60.5,28.67,NE,45,0.0,4.2,57,0.00,,,0.00,open2300-1.11,2013-06-14 12:02:00,
2013-06-14 15:07:00,76.8,60.4,28.67,NNE,22,0.0,1.3,57,0.00,,,0.00,open2300-1.11,2013-06-14 12:07:00,
2013-06-14 15:12:00,76.6,60.7,28.67,NNE,22,0.0,0.0,58,0.00,,,0.00,open2300-1.11,2013-06-14 12:12:00,
2013-06-14 15:17:00,76.8,60.4,28.67,NE,45,0.0,0.0,57,0.00,,,0.00,open2300-1.11,2013-06-14 12:17:00,
2013-06-14 15:27:00,76.3,60.4,28.67,NE,45,0.0,1.1,58,0.00,,,0.00,open2300-1.11,2013-06-14 12:27:00,
2013-06-14 15:32:00,76.8,60.9,28.67,NE,45,0.0,0.0,58,0.00,,,0.00,open2300-1.11,2013-06-14 12:32:00,
2013-06-14 15:42:00,76.3,59.9,28.67,NNE,22,0.0,6.7,57,0.00,,,0.00,open2300-1.11,2013-06-14 12:42:00,
2013-06-14 15:48:00,75.9,59.6,28.67,NNE,22,0.0,1.3,57,0.00,,,0.00,open2300-1.11,2013-06-14 12:48:00,
2013-06-14 15:57:00,76.3,60.4,28.67,NNE,22,0.0,2.5,58,0.00,,,0.00,open2300-1.11,2013-06-14 12:57:00,
2013-06-14 16:02:00,76.6,60.7,28.66,SE,135,0.0,0.0,58,0.00,,,0.00,open2300-1.11,2013-06-14 13:02:00,
2013-06-14 16:12:00,78.1,60.6,28.66,NE,45,0.0,4.9,55,0.00,,,0.00,open2300-1.11,2013-06-14 13:12:00,
2013-06-14 16:18:00,78.4,60.4,28.66,NNE,22,5.4,5.4,54,0.00,,,0.00,open2300-1.11,2013-06-14 13:18:00,
2013-06-14 16:27:00,78.4,59.9,28.65,NE,45,6.0,6.0,53,0.00,,,0.00,open2300-1.11,2013-06-14 13:27:00,
2013-06-14 16:32:00,78.4,59.9,28.65,NNE,22,0.0,6.0,53,0.00,,,0.00,open2300-1.11,2013-06-14 13:32:00,
2013-06-14 16:42:00,78.6,59.5,28.65,NNE,22,0.0,0.4,52,0.00,,,0.00,open2300-1.11,2013-06-14 13:42:00,
2013-06-14 16:47:00,79.2,60.5,28.65,NE,45,0.0,0.0,53,0.00,,,0.00,open2300-1.11,2013-06-14 13:47:00,
2013-06-14 16:52:00,79.5,60.3,28.65,NNE,22,0.0,0.0,52,0.00,,,0.00,open2300-1.11,2013-06-14 13:52:00,
2013-06-14 17:02:00,80.1,59.8,28.65,NE,45,2.0,2.7,50,0.00,,,0.00,open2300-1.11,2013-06-14 14:02:00,
2013-06-14 17:07:00,80.1,59.8,28.65,NNE,22,2.5,2.5,50,0.00,,,0.00,open2300-1.11,2013-06-14 14:07:00,
2013-06-14 17:17:00,80.8,59.8,28.64,NE,45,0.0,7.2,49,0.00,,,0.00,open2300-1.11,2013-06-14 14:17:00,
2013-06-14 17:22:00,81.1,60.1,28.64,NE,45,1.8,1.8,49,0.00,,,0.00,open2300-1.11,2013-06-14 14:22:00,
2013-06-14 17:32:00,82.0,60.9,28.64,NE,45,0.0,0.0,49,0.00,,,0.00,open2300-1.11,2013-06-14 14:32:00,
2013-06-14 17:37:00,82.2,60.5,28.64,NNE,22,2.5,2.5,48,0.00,,,0.00,open2300-1.11,2013-06-14 14:37:00,
2013-06-14 17:47:00,82.6,60.8,28.65,NE,45,0.0,0.0,48,0.00,,,0.00,open2300-1.11,2013-06-14 14:47:00,
2013-06-14 17:52:00,82.6,60.8,28.65,NNE,22,0.0,0.0,48,0.00,,,0.00,open2300-1.11,2013-06-14 14:52:00,
2013-06-14 18:02:00,81.7,60.0,28.65,NE,45,0.0,0.0,48,0.00,,,0.00,open2300-1.11,2013-06-14 15:02:00,
2013-06-14 18:07:00,81.1,59.5,28.65,NE,45,0.0,0.0,48,0.00,,,0.00,open2300-1.11,2013-06-14 15:07:00,
2013-06-14 18:17:00,79.7,58.8,28.64,NE,45,0.0,0.0,49,0.00,,,0.00,open2300-1.11,2013-06-14 15:17:00,
2013-06-14 18:22:00,79.3,59.1,28.65,NE,45,1.1,1.1,50,0.00,,,0.00,open2300-1.11,2013-06-14 15:22:00,
2013-06-14 18:27:00,79.0,58.8,28.65,NE,45,0.0,1.1,50,0.00,,,0.00,open2300-1.11,2013-06-14 15:27:00,
2013-06-14 18:37:00,78.6,58.5,28.65,NNE,22,0.0,0.0,50,0.00,,,0.00,open2300-1.11,2013-06-14 15:37:00,
2013-06-14 18:47:00,78.6,58.5,28.66,NE,45,0.0,0.0,50,0.00,,,0.00,open2300-1.11,2013-06-14 15:47:00,
2013-06-14 18:52:00,79.2,59.0,28.66,NE,45,0.0,3.4,50,0.00,,,0.00,open2300-1.11,2013-06-14 15:52:00,
2013-06-14 19:02:00,79.7,59.5,28.66,NE,45,4.9,4.9,50,0.00,,,0.00,open2300-1.11,2013-06-14 16:02:00,
2013-06-14 19:07:00,79.7,58.8,28.66,NE,45,5.4,5.4,49,0.00,,,0.00,open2300-1.11,2013-06-14 16:07:00,
2013-06-14 19:12:00,79.3,58.5,28.67,ENE,67,1.3,5.4,49,0.00,,,0.00,open2300-1.11,2013-06-14 16:12:00,
2013-06-14 19:17:00,79.2,59.0,28.67,NE,45,1.3,1.3,50,0.00,,,0.00,open2300-1.11,2013-06-14 16:17:00,
2013-06-14 19:22:00,79.0,58.8,28.66,NNE,22,0.0,1.6,50,0.00,,,0.00,open2300-1.11,2013-06-14 16:22:00,
2013-06-14 19:32:00,78.8,59.2,28.66,NE,45,0.0,2.7,51,0.00,,,0.00,open2300-1.11,2013-06-14 16:32:00,
2013-06-14 19:37:00,78.6,59.0,28.67,ENE,67,0.0,1.8,51,0.00,,,0.00,open2300-1.11,2013-06-14 16:37:00,
2013-06-14 19:42:00,78.1,59.0,28.67,NE,45,0.0,5.4,52,0.00,,,0.00,open2300-1.11,2013-06-14 16:42:00,
2013-06-14 19:52:00,76.8,58.4,28.67,NE,45,0.0,0.0,53,0.00,,,0.00,open2300-1.11,2013-06-14 16:52:00,
2013-06-14 19:57:00,76.3,58.4,28.67,NE,45,0.0,0.0,54,0.00,,,0.00,open2300-1.11,2013-06-14 16:57:00,
2013-06-14 20:02:00,76.1,58.7,28.66,NE,45,0.0,0.0,55,0.00,,,0.00,open2300-1.11,2013-06-14 17:02:00,
2013-06-14 20:12:00,75.6,58.2,28.67,NE,45,0.0,1.1,55,0.00,,,0.00,open2300-1.11,2013-06-14 17:12:00,
2013-06-14 20:22:00,75.0,58.2,28.67,NE,45,0.0,0.9,56,0.00,,,0.00,open2300-1.11,2013-06-14 17:22:00,
2013-06-14 20:27:00,74.8,58.1,28.67,NNE,22,0.0,0.0,56,0.00,,,0.00,open2300-1.11,2013-06-14 17:27:00,
2013-06-14 20:37:00,74.3,58.0,28.67,NE,45,0.0,1.3,57,0.00,,,0.00,open2300-1.11,2013-06-14 17:37:00,
2013-06-14 20:42:00,74.1,57.8,28.67,NE,45,0.0,0.0,57,0.00,,,0.00,open2300-1.11,2013-06-14 17:42:00,
2013-06-14 20:47:00,73.9,58.2,28.67,NE,45,0.0,0.0,58,0.00,,,0.00,open2300-1.11,2013-06-14 17:47:00,
2013-06-14 20:57:00,73.6,57.8,28.67,NNE,22,0.0,0.0,58,0.00,,,0.00,open2300-1.11,2013-06-14 17:57:00,
2013-06-14 21:03:00,73.6,57.8,28.67,NNE,22,0.0,1.3,58,0.00,,,0.00,open2300-1.11,2013-06-14 18:03:00,
2013-06-14 21:12:00,73.2,57.5,28.67,NE,45,0.0,0.0,58,0.00,,,0.00,open2300-1.11,2013-06-14 18:12:00,
2013-06-14 21:22:00,73.2,58.0,28.67,NE,45,0.0,0.0,59,0.00,,,0.00,open2300-1.11,2013-06-14 18:22:00,
2013-06-14 21:32:00,73.0,57.8,28.67,NE,45,0.0,0.0,59,0.00,,,0.00,open2300-1.11,2013-06-14 18:32:00,
2013-06-14 21:39:00,73.0,57.8,28.68,NNE,22,0.0,0.0,59,0.00,,,0.00,open2300-1.11,2013-06-14 18:39:00,
2013-06-14 21:47:00,72.7,58.0,28.68,NE,45,0.0,0.0,60,0.00,,,0.00,open2300-1.11,2013-06-14 18:47:00,
2013-06-14 21:52:00,72.7,58.0,28.68,NNE,22,0.0,0.0,60,0.00,,,0.00,open2300-1.11,2013-06-14 18:52:00,
2013-06-14 21:57:00,72.7,58.0,28.68,NNE,22,0.0,0.0,60,0.00,,,0.00,open2300-1.11,2013-06-14 18:57:00,
2013-06-14 22:07:00,72.5,57.8,28.68,NE,45,0.0,0.0,60,0.00,,,0.00,open2300-1.11,2013-06-14 19:07:00,
2013-06-14 22:12:00,72.3,57.7,28.69,NE,45,0.0,0.0,60,0.00,,,0.00,open2300-1.11,2013-06-14 19:12:00,
2013-06-14 22:17:00,72.1,57.5,28.69,NE,45,0.0,0.0,60,0.00,,,0.00,open2300-1.11,2013-06-14 19:17:00,
2013-06-14 22:27:00,72.0,57.3,28.69,NNE,22,0.0,0.0,60,0.00,,,0.00,open2300-1.11,2013-06-14 19:27:00,
2013-06-14 22:32:00,72.0,57.8,28.69,NE,45,0.0,0.0,61,0.00,,,0.00,open2300-1.11,2013-06-14 19:32:00,
2013-06-14 22:37:00,71.8,57.6,28.69,NNE,22,0.0,0.0,61,0.00,,,0.00,open2300-1.11,2013-06-14 19:37:00,
2013-06-14 22:47:00,71.4,57.3,28.70,NNE,22,0.0,0.0,61,0.00,,,0.00,open2300-1.11,2013-06-14 19:47:00,
2013-06-14 22:52:00,71.4,57.3,28.69,NNE,22,0.0,0.0,61,0.00,,,0.00,open2300-1.11,2013-06-14 19:52:00,
2013-06-14 22:57:00,71.4,57.3,28.70,NNE,22,0.0,0.0,61,0.00,,,0.00,open2300-1.11,2013-06-14 19:57:00,
2013-06-14 23:07:00,71.4,57.3,28.69,NNE,22,0.0,0.0,61,0.00,,,0.00,open2300-1.11,2013-06-14 20:07:00,
2013-06-14 23:12:00,71.4,57.3,28.69,NNE,22,0.0,0.0,61,0.00,,,0.00,open2300-1.11,2013-06-14 20:12:00,
2013-06-14 23:17:00,71.4,57.3,28.69,NNE,22,0.0,0.0,61,0.00,,,0.00,open2300-1.11,2013-06-14 20:17:00,
2013-06-14 23:27:00,71.2,57.1,28.69,NNE,22,0.0,0.0,61,0.00,,,0.00,open2300-1.11,2013-06-14 20:27:00,
2013-06-14 23:32:00,71.2,57.1,28.69,NNE,22,0.0,0.0,61,0.00,,,0.00,open2300-1.11,2013-06-14 20:32:00,
2013-06-14 23:38:00,71.2,57.1,28.69,NNE,22,0.0,0.0,61,0.00,,,0.00,open2300-1.11,2013-06-14 20:38:00,
2013-06-14 23:47:00,70.9,57.2,28.70,NNE,22,0.0,0.0,62,0.00,,,0.00,open2300-1.11,2013-06-14 20:47:00,
2013-06-14 23:52:00,70.9,57.2,28.70,NNE,22,0.0,0.0,62,0.00,,,0.00,open2300-1.11,2013-06-14 20:52:00,
2013-06-14 23:57:00,70.9,57.2,28.70,NNE,22,0.0,0.0,62,0.00,,,0.00,open2300-1.11,2013-06-14 20:57:00,